sim
Sign-in with your pilot id or email,
or register
Callsign
Passwort

Schedule Details

Flight Number: EWG5900
Departure: Vienna International Airport (LOWW) at 06:00
Arrival: Fuerteventura Airport (GCFV) at 11:00
Route: Eurowings Passenger Schedule. Enter filed route here before submitting Pirep.

Weather Information
Getting current METAR information for LOWW 160250Z 18004KT CAVOK M02/M04 Q1031 NOSIG
Getting current METAR information for GCFV 160230Z AUTO 28005KT 9999 NCD 13/10 Q1018

Schedule Frequency

Route Map